createdAt,value
2023-05-24T04:13:22.374Z,100.00
2023-05-24T04:32:14.971Z,100.00
2023-05-24T04:39:36.258Z,100.00
2023-05-24T04:42:39.236Z,100.00
2023-05-24T04:45:41.823Z,100.00
2023-05-24T04:56:38.982Z,100.00
2023-05-24T04:59:41.597Z,100.00
2023-05-24T05:06:30.355Z,100.00
2023-05-24T05:09:32.922Z,100.00
2023-05-24T05:12:35.467Z,100.00
2023-05-24T05:15:38.016Z,100.00
2023-05-24T05:18:41.067Z,100.00
2023-05-24T05:21:44.979Z,100.00
2023-05-24T05:24:47.519Z,100.00
2023-05-24T05:27:50.059Z,100.00
2023-05-24T05:30:52.629Z,100.00
2023-05-24T05:33:57.715Z,100.00
2023-05-24T05:37:01.743Z,100.00
2023-05-24T05:40:04.977Z,100.00
2023-05-24T05:43:08.518Z,100.00
2023-05-24T05:46:13.348Z,100.00
2023-05-24T05:49:18.432Z,100.00
2023-05-24T05:52:22.331Z,100.00
2023-05-24T05:55:25.299Z,100.00
2023-05-24T05:58:27.821Z,100.00
2023-05-24T06:01:30.381Z,100.00
2023-05-24T06:04:32.976Z,100.00
2023-05-24T06:07:37.531Z,100.00
2023-05-24T06:10:40.321Z,100.00
2023-05-24T06:13:43.062Z,100.00
2023-05-24T06:16:46.040Z,100.00
2023-05-24T06:19:48.667Z,100.00
2023-05-24T06:22:52.578Z,100.00
2023-05-24T06:25:56.139Z,100.00
2023-05-24T06:28:58.692Z,100.00
2023-05-24T06:32:01.390Z,99.18
2023-05-24T06:35:04.628Z,93.15
2023-05-24T06:38:08.593Z,90.27
2023-05-24T06:41:11.171Z,95.53
2023-05-24T06:44:13.872Z,90.28
2023-05-24T06:47:16.606Z,85.48
2023-05-24T06:50:19.549Z,82.63
2023-05-24T06:53:23.409Z,90.97
2023-05-24T06:56:26.918Z,87.90
2023-05-24T06:59:29.569Z,84.44
2023-05-24T07:02:32.159Z,83.99
2023-05-24T07:05:34.940Z,90.69
2023-05-24T07:08:38.856Z,86.62
2023-05-24T07:11:42.054Z,80.10
2023-05-24T07:14:44.697Z,77.81
2023-05-24T07:17:48.398Z,73.46
2023-05-24T07:20:51.068Z,78.45
2023-05-24T07:23:55.047Z,76.56
2023-05-24T07:26:57.816Z,80.14
2023-05-24T07:30:00.683Z,76.04
2023-05-24T07:33:03.280Z,70.20
2023-05-24T07:36:06.800Z,76.13
2023-05-24T07:39:11.069Z,78.84
2023-05-24T07:42:13.614Z,87.14
2023-05-24T07:45:16.175Z,85.58
2023-05-24T07:48:18.761Z,91.74
2023-05-24T07:51:21.656Z,83.80
2023-05-24T07:54:25.593Z,81.70
2023-05-24T07:57:28.567Z,78.15
2023-05-24T08:00:31.231Z,77.25
2023-05-24T08:03:36.845Z,70.53
2023-05-24T08:06:39.543Z,74.84
2023-05-24T08:09:43.907Z,77.76
2023-05-24T08:12:46.519Z,72.87
2023-05-24T08:15:49.057Z,67.15
2023-05-24T08:18:54.801Z,69.33
2023-05-24T08:22:04.560Z,74.36
2023-05-24T08:25:09.597Z,76.53
2023-05-24T08:28:12.189Z,75.21
2023-05-24T08:31:15.131Z,74.38
2023-05-24T08:34:18.355Z,77.88
2023-05-24T08:37:22.595Z,72.22
2023-05-24T08:40:27.067Z,76.31
2023-05-24T08:43:32.756Z,77.82
2023-05-24T08:46:37.679Z,74.53
2023-05-24T08:49:41.426Z,66.86
2023-05-24T08:52:46.407Z,72.66
2023-05-24T08:55:53.200Z,82.35
2023-05-24T08:58:56.198Z,77.39
2023-05-24T09:01:59.178Z,74.17
2023-05-24T09:05:02.350Z,71.94
2023-05-24T09:08:05.621Z,69.58
2023-05-24T09:11:10.137Z,69.90
2023-05-24T09:14:12.858Z,70.12
2023-05-24T09:17:16.045Z,69.85
2023-05-24T09:20:19.788Z,69.06
2023-05-24T09:23:23.609Z,73.57
2023-05-24T09:26:29.171Z,78.62
2023-05-24T09:29:31.671Z,85.38
2023-05-24T09:32:34.305Z,87.32
2023-05-24T09:35:37.244Z,82.09
2023-05-24T09:38:39.804Z,82.77
2023-05-24T09:41:44.646Z,77.30
2023-05-24T09:44:47.336Z,77.34
2023-05-24T09:47:49.903Z,74.48
2023-05-24T09:51:01.242Z,75.89
2023-05-24T09:54:04.367Z,71.34
2023-05-24T09:57:08.590Z,71.01
2023-05-24T10:00:17.834Z,70.65
2023-05-24T10:03:20.733Z,70.97
2023-05-24T10:06:24.019Z,78.34
2023-05-24T10:09:33.706Z,82.22
2023-05-24T10:12:42.904Z,77.19
2023-05-24T10:15:45.969Z,79.05
2023-05-24T10:18:48.584Z,85.24
2023-05-24T10:21:51.978Z,87.64
2023-05-24T10:24:59.589Z,83.55
2023-05-24T10:28:07.410Z,87.02
2023-05-24T10:31:15.043Z,88.65
2023-05-24T10:34:17.935Z,89.47
2023-05-24T10:37:20.633Z,88.32
2023-05-24T10:40:26.077Z,86.81
2023-05-24T10:43:30.644Z,86.61
2023-05-24T10:46:33.883Z,90.11
2023-05-24T10:49:37.046Z,85.00
2023-05-24T10:52:39.624Z,92.81
2023-05-24T10:55:55.867Z,89.62
2023-05-24T10:59:06.233Z,83.56
2023-05-24T11:02:14.944Z,82.09
2023-05-24T11:05:17.848Z,79.11
2023-05-24T11:08:27.536Z,76.71
2023-05-24T11:11:32.078Z,76.00
2023-05-24T11:14:39.542Z,80.42
2023-05-24T11:18:17.709Z,76.82
2023-05-24T11:21:20.904Z,81.45
2023-05-24T11:24:23.659Z,85.18
2023-05-24T11:27:27.001Z,82.58
2023-05-24T11:30:32.679Z,79.21
2023-05-24T11:33:35.255Z,82.96
2023-05-24T11:36:38.056Z,80.99
2023-05-24T11:39:41.187Z,83.37
2023-05-24T11:42:44.786Z,86.15
2023-05-24T11:45:50.851Z,90.47
2023-05-24T11:48:57.972Z,86.92
2023-05-24T11:52:01.658Z,88.49
2023-05-24T11:55:04.648Z,92.82
2023-05-24T11:58:12.619Z,93.25
2023-05-24T12:01:26.222Z,93.13
2023-05-24T12:04:29.321Z,87.63
2023-05-24T12:07:31.975Z,87.74
2023-05-24T12:10:35.823Z,86.73
2023-05-24T12:13:38.574Z,91.73
2023-05-24T12:16:43.395Z,90.15
2023-05-24T12:19:45.942Z,91.88
2023-05-24T12:22:53.152Z,86.42
2023-05-24T12:25:59.373Z,83.42
2023-05-24T12:29:01.908Z,79.71
2023-05-24T12:32:06.567Z,77.71
2023-05-24T12:35:12.022Z,79.14
2023-05-24T12:38:15.319Z,74.43
2023-05-24T12:41:17.887Z,75.24
2023-05-24T12:44:25.558Z,78.06
2023-05-24T12:47:29.507Z,76.78
2023-05-24T12:50:32.502Z,84.02
2023-05-24T12:53:35.093Z,84.81
2023-05-24T12:56:38.153Z,82.76
2023-05-24T12:59:40.819Z,84.25
2023-05-24T13:02:44.714Z,83.35
2023-05-24T13:05:47.483Z,82.81
2023-05-24T13:08:50.349Z,84.77
2023-05-24T13:11:54.055Z,84.71
2023-05-24T13:14:56.825Z,85.51
2023-05-24T13:18:00.785Z,88.98
2023-05-24T13:21:05.378Z,89.56
2023-05-24T13:24:08.690Z,90.89
2023-05-24T13:27:11.214Z,90.32
2023-05-24T13:30:14.304Z,91.68
2023-05-24T13:33:18.283Z,89.28
2023-05-24T13:36:20.958Z,90.50
2023-05-24T13:39:23.964Z,89.59
2023-05-24T13:42:26.547Z,88.33
2023-05-24T13:45:30.302Z,86.71
2023-05-24T13:48:34.944Z,87.61
2023-05-24T13:51:37.972Z,83.87
2023-05-24T13:54:40.537Z,81.71
2023-05-24T13:57:51.800Z,81.39
2023-05-24T14:00:54.665Z,80.51
2023-05-24T14:03:58.606Z,80.79
2023-05-24T14:07:01.250Z,82.72
2023-05-24T14:10:03.862Z,85.01
2023-05-24T14:16:13.396Z,89.82
2023-05-24T14:19:17.603Z,89.61
2023-05-24T14:22:20.239Z,92.20
2023-05-24T14:25:22.765Z,93.19
2023-05-24T14:28:25.329Z,88.14
2023-05-24T14:31:27.875Z,92.81
2023-05-24T14:34:31.764Z,91.40
2023-05-24T14:37:34.336Z,91.96
2023-05-24T14:40:39.639Z,93.26
2023-05-24T14:43:42.254Z,91.10
2023-05-24T14:46:44.874Z,83.69
2023-05-24T14:49:48.808Z,80.58
2023-05-24T14:52:53.156Z,72.38
2023-05-24T14:55:57.601Z,67.51
2023-05-24T14:59:00.277Z,70.46
2023-05-24T15:02:02.849Z,71.20
2023-05-24T15:05:08.061Z,75.52
2023-05-24T15:08:11.475Z,72.21
2023-05-24T15:11:17.418Z,70.63
2023-05-24T15:14:20.090Z,70.29
2023-05-24T15:17:22.687Z,70.93
2023-05-24T15:20:26.782Z,71.76
2023-05-24T15:23:29.472Z,69.62
2023-05-24T15:26:32.008Z,70.61
2023-05-24T15:29:34.669Z,69.17
2023-05-24T15:32:37.233Z,69.37
2023-05-24T15:35:41.254Z,71.31
2023-05-24T15:38:43.928Z,73.39
2023-05-24T15:41:46.475Z,72.26
2023-05-24T15:44:49.048Z,71.59
2023-05-24T15:47:51.701Z,67.92
2023-05-24T15:51:46.443Z,67.79
2023-05-24T15:54:18.108Z,69.48
2023-05-24T15:57:21.091Z,70.60
2023-05-24T16:00:23.740Z,72.65
2023-05-24T16:03:26.419Z,70.32
2023-05-24T16:06:30.465Z,75.26
2023-05-24T16:09:33.009Z,81.17
2023-05-24T16:12:35.667Z,79.89
2023-05-24T16:15:40.904Z,76.34
2023-05-24T16:18:43.451Z,79.00
2023-05-24T16:21:47.416Z,85.00
2023-05-24T16:24:49.915Z,86.28
2023-05-24T16:27:52.652Z,86.72
2023-05-24T16:30:56.272Z,84.41
2023-05-24T16:33:59.067Z,80.48
2023-05-24T16:37:04.282Z,78.83
2023-05-24T16:40:08.229Z,79.66
2023-05-24T16:43:10.772Z,86.01
2023-05-24T16:46:13.405Z,81.17
2023-05-24T16:49:16.258Z,84.17
2023-05-24T16:52:20.101Z,84.72
2023-05-24T16:55:22.671Z,85.99
2023-05-24T16:58:28.020Z,88.86
2023-05-24T17:01:30.598Z,92.27
2023-05-24T17:04:33.137Z,93.29
2023-05-24T17:07:37.034Z,92.76
2023-05-24T17:10:39.713Z,94.25
2023-05-24T17:13:42.591Z,95.68
2023-05-24T17:16:45.169Z,95.23
2023-05-24T17:19:47.813Z,96.00
2023-05-24T17:22:51.696Z,98.71
2023-05-24T17:25:55.526Z,99.36
2023-05-24T17:28:58.109Z,100.00
2023-05-24T17:32:00.865Z,100.00
2023-05-24T17:35:03.674Z,100.00
2023-05-24T17:38:07.522Z,100.00
2023-05-24T17:41:10.197Z,100.00
2023-05-24T17:44:12.734Z,100.00
2023-05-24T17:47:15.258Z,100.00
2023-05-24T17:50:17.819Z,100.00
2023-05-24T17:53:31.206Z,100.00
2023-05-24T17:56:34.579Z,100.00
2023-05-24T17:59:37.174Z,100.00
2023-05-24T18:02:39.693Z,100.00
2023-05-24T18:05:42.583Z,100.00
2023-05-24T18:08:46.590Z,100.00
2023-05-24T18:11:49.634Z,100.00
2023-05-24T18:14:52.209Z,100.00
2023-05-24T18:17:54.779Z,100.00
2023-05-24T18:20:57.391Z,100.00
2023-05-24T18:24:01.242Z,100.00
2023-05-24T18:27:04.034Z,100.00
2023-05-24T18:30:08.329Z,100.00
2023-05-24T18:33:11.054Z,100.00
2023-05-24T18:36:13.786Z,100.00
2023-05-24T18:39:17.629Z,100.00
2023-05-24T18:42:20.160Z,100.00
2023-05-24T18:45:22.859Z,100.00
2023-05-24T18:48:25.441Z,100.00
2023-05-24T18:51:28.023Z,100.00
2023-05-24T18:54:31.881Z,100.00
2023-05-24T18:57:34.466Z,100.00
2023-05-24T19:00:37.097Z,100.00
2023-05-24T19:03:41.660Z,100.00
2023-05-24T19:06:44.438Z,100.00
2023-05-24T19:09:48.297Z,100.00
2023-05-24T19:12:50.840Z,100.00
2023-05-24T19:15:53.660Z,100.00
2023-05-24T19:18:56.239Z,100.00
2023-05-24T19:21:58.779Z,100.00
